Latest Weather Observations for Longreach

IDQ60801

Issued at 4:05 am EST Wednesday 24 September 2014 (issued every 30 minutes, with the page automatically refreshed every 10 minutes)

About weather observations | Map of weather stations | Latest weather observations for QLD | Other Formats
Station Details ID: 036031 Name: LONGREACH AERO Lat: -23.44 Lon: 144.28 Height: 192.2 m
Data from the previous 72 hours. | See also: Recent months at Longreach
Date/Time
EST
Temp
°C
App
Temp
°C
Dew
Point
Rel
Hum
%
Delta-T
°C
Wind Press
QNH
hPa
Press
MSL
hPa
Rain
since 9 am
mm
Dir
 
Spd
km/h
Gust
km/h
Spd
kts
Gust
kts
24/04:00am 19.8 15.6 13.4 66 3.7 NE 28 37 15 20 1017.7 - 0.0
24/03:30am 20.2 15.5 13.2 64 4.0 NE 30 37 16 20 1017.6 - 0.0
24/03:00am 20.4 15.4 13.3 63 4.1 NE 32 39 17 21 1017.2 1016.6 0.0
24/02:30am 20.8 15.7 13.1 61 4.4 NE 32 43 17 23 1017.3 - 0.0
24/02:00am 21.1 16.4 13.1 60 4.6 NE 30 41 16 22 1017.3 - 0.0
24/01:30am 21.4 16.1 13.1 59 4.8 ENE 33 44 18 24 1017.4 - 0.0
24/01:00am 21.3 17.0 13.1 59 4.7 NE 28 37 15 20 1017.5 - 0.0
24/12:30am 21.3 16.5 12.9 58 4.8 ENE 30 37 16 20 1017.2 - 0.0
24/12:00am 20.9 17.2 12.7 59 4.7 ENE 24 32 13 17 1017.6 1017.0 0.0
 
Date/Time
EST
Temp
°C
App
Temp
°C
Dew
Point
Rel
Hum
%
Delta-T
°C
Wind Press
QNH
hPa
Press
MSL
hPa
Rain
since 9 am
mm
Dir
 
Spd
km/h
Gust
km/h
Spd
kts
Gust
kts
23/11:30pm 21.0 18.0 12.6 58 4.8 ENE 20 28 11 15 1017.6 - 0.0
23/11:00pm 21.2 18.7 12.4 57 5.0 E 17 22 9 12 1017.5 - 0.0
23/10:30pm 21.8 18.7 12.3 54 5.4 ENE 20 26 11 14 1017.5 - 0.0
23/10:00pm 22.1 19.1 12.5 54 5.5 ENE 20 28 11 15 1017.6 - 0.0
23/09:30pm 22.6 18.7 12.0 51 6.0 ENE 24 30 13 16 1017.5 - 0.0
23/09:00pm 23.0 19.0 11.9 49 6.3 ENE 24 32 13 17 1017.7 1017.1 0.0
23/08:30pm 23.5 19.5 11.7 47 6.7 ENE 24 30 13 16 1017.6 - 0.0
23/08:00pm 23.7 19.3 11.7 47 6.8 ENE 26 33 14 18 1017.5 - 0.0
23/07:30pm 24.0 19.2 11.7 46 7.0 ENE 28 41 15 22 1017.1 - 0.0
23/07:00pm 23.9 19.9 11.8 46 6.9 ENE 24 32 13 17 1016.9 - 0.0
23/06:30pm 24.3 18.8 11.7 45 7.2 ENE 32 41 17 22 1016.6 - 0.0
23/06:00pm 24.9 19.1 11.6 43 7.6 ENE 33 44 18 24 1016.3 1015.6 0.0
23/05:30pm 25.9 19.7 11.4 40 8.3 NE 35 43 19 23 1016.2 - 0.0
23/05:00pm 26.5 20.1 10.8 37 8.9 ENE 35 46 19 25 1016.1 - 0.0
23/04:30pm 26.9 20.6 11.2 37 9.0 NE 35 48 19 26 1015.9 - 0.0
23/04:10pm 27.6 20.8 10.8 35 9.6 NE 37 44 20 24 1015.9 - 0.0
23/04:00pm 27.4 21.2 11.4 37 9.2 ENE 35 48 19 26 1015.8 - 0.0
23/03:30pm 27.3 21.6 11.0 36 9.3 NE 32 43 17 23 1016.0 - 0.0
23/03:00pm 26.9 20.9 10.9 36 9.1 NE 33 46 18 25 1016.2 1015.5 0.0
23/02:30pm 27.5 21.2 10.9 35 9.5 NE 35 48 19 26 1016.4 - 0.0
23/02:00pm 27.7 21.4 11.1 35 9.5 NE 35 46 19 25 1016.8 - 0.0
23/01:26pm 27.6 21.7 11.0 35 9.5 NE 33 52 18 28 1017.4 - 0.0
23/01:00pm 27.5 21.3 11.3 36 9.3 NE 35 50 19 27 1017.8 - 0.0
23/12:30pm 26.1 19.8 11.2 39 8.5 NE 35 50 19 27 1018.4 - 0.0
23/12:00pm 25.6 19.9 11.8 42 7.9 NE 33 48 18 26 1019.0 1018.4 0.0
23/11:30am 25.8 19.7 11.9 42 8.0 NE 35 48 19 26 1019.8 - 0.0
23/11:19am 25.7 18.9 11.8 42 8.0 NNE 39 48 21 26 1019.9 - 0.0
23/11:01am 25.0 18.9 11.9 44 7.5 ENE 35 56 19 30 1020.1 - 0.0
23/10:30am 23.3 17.3 12.1 49 6.4 NE 35 48 19 26 1020.5 - 0.0
23/10:00am 22.8 16.5 12.3 51 6.0 NE 37 48 20 26 1020.6 - 0.0
23/09:30am 21.1 15.1 12.1 56 5.1 NE 35 52 19 28 1021.1 - 0.0
23/09:00am 19.9 13.1 12.0 60 4.4 NE 39 50 21 27 1021.3 1020.7 0.0
23/08:30am 19.1 12.3 12.1 64 3.9 NE 39 50 21 27 1021.4 - 0.0
23/08:00am 18.7 13.2 12.3 66 3.6 NE 33 43 18 23 1021.0 - 0.0
23/07:30am 18.1 11.8 12.4 69 3.2 NE 37 52 20 28 1020.4 - 0.0
23/07:00am 17.7 12.2 12.3 70 3.0 ENE 33 43 18 23 1019.9 - 0.0
23/06:30am 17.4 11.0 12.0 70 3.0 ENE 37 52 20 28 1019.5 - 0.0
23/06:00am 17.3 11.9 12.1 71 2.9 ENE 32 41 17 22 1019.6 1019.0 0.0
23/05:30am 17.2 11.7 11.9 71 2.9 ENE 32 39 17 21 1019.0 - 0.0
23/05:00am 17.1 11.6 11.8 71 2.9 ENE 32 41 17 22 1018.9 - 0.0
23/04:30am 17.0 11.3 11.7 71 2.9 ENE 33 46 18 25 1018.9 - 0.0
23/04:00am 16.8 11.2 11.5 71 2.9 ENE 32 39 17 21 1019.1 - 0.0
23/03:30am 16.5 11.6 11.3 71 2.8 E 28 37 15 20 1018.7 - 0.0
23/03:21am 16.3 11.4 11.3 72 2.7 E 28 43 15 23 1018.8 - 0.0
23/03:00am 15.9 13.0 11.1 73 2.6 ENE 17 22 9 12 1019.4 1018.8 0.0
23/02:30am 15.7 11.9 11.1 74 2.5 E 22 33 12 18 1019.3 - 0.0
23/02:00am 15.8 10.8 11.0 73 2.6 ENE 28 37 15 20 1019.3 - 0.0
23/01:30am 15.8 11.9 10.8 72 2.7 E 22 30 12 16 1019.5 - 0.0
23/01:00am 16.3 12.0 10.9 70 2.9 E 24 32 13 17 1019.6 - 0.0
23/12:30am 16.6 11.5 10.6 67 3.2 E 28 37 15 20 1019.7 - 0.0
23/12:00am 16.9 10.5 10.6 66 3.4 E 35 44 19 24 1019.8 1019.2 0.0
 
Date/Time
EST
Temp
°C
App
Temp
°C
Dew
Point
Rel
Hum
%
Delta-T
°C
Wind Press
QNH
hPa
Press
MSL
hPa
Rain
since 9 am
mm
Dir
 
Spd
km/h
Gust
km/h
Spd
kts
Gust
kts
22/11:30pm 17.3 10.8 10.4 64 3.7 E 35 50 19 27 1019.9 - 0.0
22/11:00pm 17.6 10.8 10.8 64 3.7 E 37 50 20 27 1019.7 - 0.0
22/10:30pm 17.9 11.2 10.9 63 3.8 E 37 48 20 26 1019.8 - 0.0
22/10:00pm 18.6 12.4 11.5 63 3.9 E 35 48 19 26 1019.8 - 0.0
22/09:30pm 19.3 12.4 11.5 60 4.3 E 39 54 21 29 1019.6 - 0.0
22/09:00pm 19.9 12.2 11.4 58 4.7 E 43 54 23 29 1019.3 1018.7 0.0
22/08:46pm 20.4 13.6 10.7 53 5.3 E 37 56 20 30 1019.2 - 0.0
22/08:30pm 20.7 13.1 10.5 52 5.6 E 41 54 22 29 1018.7 - 0.0
22/08:00pm 21.5 15.6 10.6 50 6.0 E 32 50 17 27 1018.9 - 0.0
22/07:55pm 21.6 15.7 10.5 49 6.1 E 32 50 17 27 1018.9 - 0.0
22/07:30pm 22.0 15.9 10.4 47 6.4 E 33 44 18 24 1018.4 - 0.0
22/07:04pm 22.5 16.6 10.6 47 6.6 E 32 50 17 27 1017.9 - 0.0
22/07:00pm 22.5 16.4 10.6 47 6.6 E 33 50 18 27 1017.8 - 0.0
22/06:30pm 23.1 16.6 10.5 45 7.0 E 35 46 19 25 1017.1 - 0.0
22/06:00pm 23.9 17.7 10.2 42 7.6 E 33 46 18 25 1016.3 1015.6 0.0
22/05:30pm 24.9 18.1 9.2 37 8.6 ENE 35 46 19 25 1015.4 - 0.0
22/05:00pm 26.1 19.2 8.7 33 9.5 E 35 50 19 27 1015.1 - 0.0
22/04:43pm 26.4 19.6 9.2 33 9.5 E 35 48 19 26 1015.2 - 0.0
22/04:35pm 26.8 19.6 9.0 32 9.8 ENE 37 44 20 24 1015.2 - 0.0
22/04:30pm 25.8 18.9 9.0 34 9.2 E 35 43 19 23 1015.2 - 0.0
22/04:19pm 26.9 20.7 9.5 33 9.7 ENE 32 50 17 27 1015.0 - 0.0
22/04:00pm 26.8 19.9 8.8 32 9.9 ENE 35 44 19 24 1015.0 - 0.0
22/03:30pm 25.9 19.1 9.2 34 9.2 ENE 35 46 19 25 1015.1 - 0.0
22/03:00pm 27.8 21.5 9.1 31 10.4 NE 32 41 17 22 1015.4 1014.7 0.0
22/02:30pm 26.8 21.3 9.0 32 9.8 NE 28 39 15 21 1015.9 - 0.0
22/02:00pm 27.3 23.4 9.6 33 9.9 NE 20 37 11 20 1016.2 - 0.0
22/01:30pm 26.2 20.5 9.9 35 9.1 NE 30 39 16 21 1016.7 - 0.0
22/01:00pm 26.7 23.1 10.4 36 9.2 NE 20 32 11 17 1017.0 - 0.0
22/12:30pm 25.6 22.6 10.5 38 8.5 E 17 28 9 15 1017.6 - 0.0
22/12:00pm 25.2 20.8 10.4 39 8.3 NE 24 37 13 20 1018.2 1017.6 0.0
22/11:30am 25.1 19.6 10.4 39 8.2 NE 30 39 16 21 1018.8 - 0.0
22/11:00am 24.4 18.5 10.6 41 7.7 NE 32 39 17 21 1019.3 - 0.0
22/10:30am 23.1 18.0 10.5 45 7.0 ENE 28 41 15 22 1019.8 - 0.0
22/10:00am 22.4 16.9 10.4 46 6.6 ENE 30 41 16 22 1019.9 - 0.0
22/09:30am 20.7 15.7 11.1 54 5.3 ENE 28 37 15 20 1020.2 - 0.0
22/09:00am 19.9 14.9 11.0 56 4.9 NE 28 37 15 20 1020.4 1019.8 0.0
22/08:30am 18.5 13.9 11.2 62 4.0 ENE 26 32 14 17 1020.1 - 0.0
22/08:00am 17.5 13.3 11.1 66 3.5 E 24 30 13 16 1019.8 - 0.0
22/07:30am 16.1 11.1 11.1 72 2.7 E 28 33 15 18 1019.6 - 0.0
22/07:00am 15.3 12.0 10.8 74 2.4 E 19 28 10 15 1019.2 - 0.0
22/06:30am 14.5 10.2 10.7 78 2.0 E 24 32 13 17 1018.8 - 0.0
22/06:00am 14.8 9.7 10.7 76 2.2 ENE 28 35 15 19 1018.7 1018.1 0.0
22/05:30am 14.6 9.5 10.6 77 2.1 ENE 28 37 15 20 1018.6 - 0.0
22/05:00am 14.9 9.0 10.4 74 2.4 ENE 32 41 17 22 1018.2 - 0.0
22/04:30am 15.0 9.1 10.3 73 2.5 E 32 41 17 22 1017.5 - 0.0
22/04:00am 15.0 9.1 10.3 73 2.5 E 32 41 17 22 1017.4 - 0.0
22/03:30am 15.0 8.9 10.5 74 2.4 E 33 43 18 23 1017.7 - 0.0
22/03:00am 14.9 10.3 11.0 77 2.1 E 26 33 14 18 1018.3 1017.7 0.0
22/02:30am 15.0 10.4 11.1 77 2.1 E 26 33 14 18 1018.2 - 0.0
22/02:00am 14.9 10.8 11.4 79 1.9 E 24 37 13 20 1018.7 - 0.0
22/01:30am 15.2 11.1 11.5 78 2.0 E 24 33 13 18 1019.4 - 0.0
22/01:00am 15.5 11.8 11.4 76 2.2 ENE 22 32 12 17 1019.9 - 0.0
22/12:30am 15.4 10.6 11.5 77 2.1 E 28 35 15 19 1019.7 - 0.0
22/12:00am 15.6 11.0 11.1 74 2.4 E 26 33 14 18 1019.9 1019.3 0.0
 
Date/Time
EST
Temp
°C
App
Temp
°C
Dew
Point
Rel
Hum
%
Delta-T
°C
Wind Press
QNH
hPa
Press
MSL
hPa
Rain
since 9 am
mm
Dir
 
Spd
km/h
Gust
km/h
Spd
kts
Gust
kts
21/11:30pm 16.1 12.3 11.3 73 2.6 E 22 28 12 15 1020.1 - 0.0
21/11:00pm 16.2 12.5 11.4 73 2.6 E 22 30 12 16 1020.2 - 0.0
21/10:30pm 16.2 12.4 11.2 72 2.7 ESE 22 32 12 17 1019.6 - 0.0
21/10:00pm 16.1 11.6 11.5 74 2.5 ESE 26 33 14 18 1019.3 - 0.0
21/09:30pm 16.4 10.8 11.4 72 2.7 ESE 32 43 17 23 1019.2 - 0.0
21/09:00pm 17.3 12.1 11.7 69 3.1 SE 30 43 16 23 1019.2 1018.6 0.0
21/08:30pm 17.5 12.0 11.9 69 3.1 SE 32 41 17 22 1018.6 - 0.0
21/08:00pm 17.9 10.6 11.7 67 3.4 SE 41 50 22 27 1018.1 - 0.0
21/07:55pm 18.2 11.4 11.9 66 3.5 ESE 39 48 21 26 1018.0 - 0.0
21/07:30pm 19.1 13.9 11.5 61 4.2 SSE 30 41 16 22 1017.6 - 0.0
21/07:00pm 21.2 17.4 9.8 48 6.2 SE 20 30 11 16 1016.8 - 0.0
21/06:30pm 21.8 17.5 10.8 49 6.1 SE 24 35 13 19 1016.3 - 0.0
21/06:00pm 23.5 22.2 12.4 49 6.4 SSW 11 17 6 9 1015.0 1014.4 0.0
21/05:30pm 26.1 22.4 9.3 34 9.3 NE 19 24 10 13 1014.7 - 0.0
21/05:00pm 27.0 22.7 7.2 28 10.6 NE 19 28 10 15 1014.3 - 0.0
21/04:30pm 28.0 23.6 4.8 22 12.0 NNE 17 28 9 15 1014.3 - 0.0
21/04:00pm 27.2 22.9 5.2 24 11.4 NNE 17 28 9 15 1014.7 - 0.0
21/03:30pm 27.8 22.2 5.3 24 11.7 NNE 24 39 13 21 1014.8 - 0.0
21/03:00pm 27.9 23.3 3.9 21 12.2 NNE 17 24 9 13 1015.0 1014.4 0.0
21/02:30pm 27.4 22.5 4.9 23 11.6 E 20 28 11 15 1015.4 - 0.0
21/02:00pm 28.9 23.2 4.8 21 12.5 NE 24 35 13 19 1015.8 - 0.0
21/01:30pm 28.0 23.4 3.7 21 12.3 NNE 17 28 9 15 1016.2 - 0.0
21/01:00pm 28.3 24.4 5.3 23 12.0 ENE 15 28 8 15 1016.8 - 0.0
21/12:30pm 27.3 22.1 7.4 28 10.7 ENE 24 30 13 16 1017.5 - 0.0
21/12:00pm 25.2 18.9 8.9 35 8.9 NE 32 41 17 22 1018.4 1017.8 0.0
21/11:30am 26.4 19.6 7.8 30 10.0 ENE 33 43 18 23 1018.9 - 0.0
21/11:00am 25.9 19.3 7.8 31 9.7 ENE 32 39 17 21 1019.0 - 0.0
21/10:30am 24.6 18.2 8.5 36 8.7 ENE 32 41 17 22 1019.4 - 0.0
21/10:00am 24.1 17.3 7.7 35 8.7 ENE 33 41 18 22 1019.7 - 0.0
21/09:30am 22.0 15.8 7.9 40 7.4 ENE 30 35 16 19 1019.9 - 0.0
21/09:00am 21.4 15.8 7.3 40 7.3 E 26 33 14 18 1019.8 1019.2 0.0
21/08:30am 21.1 14.8 5.8 37 7.7 ENE 28 32 15 17 1020.0 - 0.0
21/08:20am 20.9 13.5 4.9 35 7.9 NE 33 44 18 24 1020.3 - 0.0
21/08:00am 20.2 14.7 1.8 29 8.5 ENE 20 26 11 14 1020.6 - 0.0
21/07:30am 20.6 14.4 2.2 29 8.6 ESE 24 28 13 15 1019.6 - 0.0
21/07:00am 20.8 16.2 1.5 27 8.9 SE 15 20 8 11 1019.5 - 0.0
21/06:30am 20.9 16.2 0.7 26 9.2 SE 15 19 8 10 1018.9 - 0.0
21/06:00am 21.3 15.0 -0.8 23 9.8 SE 22 30 12 16 1018.5 1017.9 0.0
21/05:30am 20.5 14.6 -2.6 21 9.8 E 19 26 10 14 1018.4 - 0.0
21/05:00am 20.9 12.2 -4.9 17 10.5 SE 32 39 17 21 1018.4 - 0.0
21/04:30am 20.2 11.2 -7.9 14 10.7 SSE 32 39 17 21 1017.2 - 0.0

Other Formats:

Comma delimited format used in spreadsheet applications
http://www.bom.gov.au/fwo/IDQ60801/IDQ60801.94346.axf

JavaScript Object Notation format (JSON) in row-major order
http://www.bom.gov.au/fwo/IDQ60801/IDQ60801.94346.json